Stations météo

Publicité
St-Raphael, France (7680): Température de l'air & dewpoint: 18.01.2019 11:00:00 - 24.01.2019 11:00:00 (CET)St-Raphael, France (7680): Vitesse du vent & gusts: 18.01.2019 11:00:00 - 24.01.2019 11:00:00 (CET)St-Raphael, France (7680): Direction du vent: 18.01.2019 11:00:00 - 24.01.2019 11:00:00 (CET)St-Raphael, France (7680): Quantités de précipitations: 18.01.2019 11:00:00 - 24.01.2019 11:00:00 (CET)
Date & Time tt [°C] td [°C] ff [km/h] ff [knt] fx [km/h] fx [knt] dd rr [mm]
24.01.2019 11:00:00 - - - - - - - -
24.01.2019 10:00:00 6,1 -1,6 11 6 26 14 NNW 0,0
24.01.2019 09:00:00 3,3 -2,7 11 6 24 13 NNW 0,0
24.01.2019 08:00:00 2,1 -2,4 8 4 22 12 NNE 0,0
24.01.2019 07:00:00 2,6 -2,3 9 5 24 13 N -
24.01.2019 06:00:00 2,8 -1,9 9 5 24 13 NNW 0,0
24.01.2019 05:00:00 2,7 -1,8 8 4 26 14 N 0,0
24.01.2019 04:00:00 2,1 -1,2 5 3 22 12 N 0,0
24.01.2019 03:00:00 2,1 -0,7 9 5 22 12 NNW 0,0
24.01.2019 02:00:00 2,0 -0,4 11 6 29 16 N 0,0
24.01.2019 01:00:00 2,1 0,5 9 5 22 12 NNW -
24.01.2019 00:00:00 2,4 1,7 9 5 22 12 NNW 0,0
23.01.2019 23:00:00 2,6 1,9 13 7 24 13 NW 0,0
23.01.2019 22:00:00 3,1 2,4 9 5 18 10 NW 0,2
23.01.2019 21:00:00 3,5 2,9 9 5 22 12 WSW 3,0
23.01.2019 20:00:00 3,8 2,9 4 2 24 13 N 6,0
23.01.2019 19:00:00 3,9 3,0 8 4 35 19 NNE -
23.01.2019 18:00:00 5,2 2,5 13 7 41 22 ENE 3,0
23.01.2019 17:00:00 7,8 -0,4 4 2 11 6 N 0,0
23.01.2019 16:00:00 7,7 -1,5 4 2 26 14 WNW 0,0
23.01.2019 15:00:00 8,1 -1,7 11 6 28 15 W 0,0
23.01.2019 14:00:00 8,9 -1,5 16 9 26 14 W 0,0
23.01.2019 13:00:00 7,5 -1,5 8 4 18 10 NNW -
23.01.2019 12:00:00 5,4 -2,2 11 6 28 15 NW 0,0
23.01.2019 11:00:00 4,9 -2,2 15 8 31 17 NW 0,0
23.01.2019 10:00:00 3,0 -2,9 11 6 26 14 NNW 0,0
23.01.2019 09:00:00 1,9 -3,4 11 6 24 13 NNW 0,0
23.01.2019 08:00:00 1,8 -3,7 11 6 26 14 NNW 0,0
23.01.2019 07:00:00 2,3 -3,6 11 6 29 16 NNW -
23.01.2019 06:00:00 2,4 -3,3 11 6 24 13 NNW 0,0
23.01.2019 05:00:00 2,3 -3,6 11 6 22 12 NNW 0,0
23.01.2019 04:00:00 1,6 -3,5 9 5 26 14 NNW 0,0
23.01.2019 03:00:00 1,6 -3,9 11 6 24 13 NNW 0,0
23.01.2019 02:00:00 1,1 -3,4 11 6 26 14 N 0,0
23.01.2019 01:00:00 1,4 -3,1 9 5 22 12 NNW -
23.01.2019 00:00:00 2,5 -2,8 11 6 24 13 NW 0,0
22.01.2019 23:00:00 3,8 -2,6 13 7 29 16 NW 0,0
22.01.2019 22:00:00 4,0 -1,8 11 6 22 12 NW 0,0
22.01.2019 21:00:00 4,3 -1,7 9 5 16 9 NNW 0,0
22.01.2019 20:00:00 5,3 -1,4 8 4 22 12 NW 0,0
22.01.2019 19:00:00 4,7 0,8 8 4 13 7 WNW -
22.01.2019 18:00:00 5,3 1,4 5 3 13 7 WSW 0,0
22.01.2019 17:00:00 9,4 3,4 4 2 15 8 S 0,0
22.01.2019 16:00:00 11,2 2,5 11 6 21 11 W 0,0
22.01.2019 15:00:00 10,9 3,0 2 1 8 4 SSE 0,0
22.01.2019 14:00:00 11,4 0,2 4 2 15 8 NW 0,0
22.01.2019 13:00:00 9,5 -0,1 9 5 22 12 NNW -
22.01.2019 12:00:00 7,6 -1,4 9 5 22 12 NNW 0,0
22.01.2019 11:00:00 5,5 -1,4 11 6 29 16 NNW 0,0
22.01.2019 10:00:00 3,0 -1,9 13 7 28 15 NNW 0,0
22.01.2019 09:00:00 1,1 -2,5 15 8 31 17 NNW 0,0
22.01.2019 08:00:00 0,3 -2,6 13 7 29 16 NNW 0,0
22.01.2019 07:00:00 0,4 -2,5 15 8 29 16 NNW -
22.01.2019 06:00:00 0,9 -2,0 13 7 29 16 NNW 0,0
22.01.2019 05:00:00 1,1 -1,6 13 7 28 15 NNW 0,0
22.01.2019 04:00:00 1,4 -1,0 11 6 26 14 NNW 0,0
22.01.2019 03:00:00 1,4 -0,5 9 5 24 13 NNW 0,0
22.01.2019 02:00:00 2,1 -0,2 9 5 21 11 NNW 0,0
22.01.2019 01:00:00 2,3 0,0 9 5 21 11 N -
22.01.2019 00:00:00 2,9 0,6 9 5 16 9 NNW 0,0
21.01.2019 23:00:00 3,3 0,9 5 3 15 8 N 0,0
21.01.2019 22:00:00 4,3 1,3 5 3 18 10 NNW 0,0
21.01.2019 21:00:00 4,0 1,5 5 3 13 7 NW 0,0
21.01.2019 20:00:00 5,8 2,1 4 2 15 8 WNW 0,0
21.01.2019 19:00:00 6,3 2,0 8 4 9 5 NNW -
21.01.2019 18:00:00 5,9 1,4 4 2 11 6 W 0,0
21.01.2019 17:00:00 9,4 2,0 4 2 16 9 SSW 0,0
21.01.2019 16:00:00 11,1 1,3 9 5 16 9 S 0,0
21.01.2019 15:00:00 12,3 1,3 9 5 18 10 S 0,0
21.01.2019 14:00:00 12,2 1,5 4 2 13 7 WNW 0,0
21.01.2019 13:00:00 10,7 3,2 8 4 18 10 NW -
21.01.2019 12:00:00 8,7 2,5 11 6 21 11 NW 0,0
21.01.2019 11:00:00 6,7 2,0 9 5 21 11 NNW 0,0
21.01.2019 10:00:00 3,7 1,2 9 5 21 11 NW 0,0
21.01.2019 09:00:00 1,8 0,2 8 4 28 15 NNW 0,0
21.01.2019 08:00:00 1,8 0,3 13 7 29 16 NW 0,0
21.01.2019 07:00:00 2,0 0,7 11 6 24 13 NW -
21.01.2019 06:00:00 2,3 1,0 11 6 24 13 NNW 0,0
21.01.2019 05:00:00 3,0 1,4 9 5 26 14 NNW 0,0
21.01.2019 04:00:00 3,7 2,1 11 6 24 13 NW 0,0
21.01.2019 03:00:00 3,7 2,2 9 5 22 12 NW 0,0
21.01.2019 02:00:00 3,7 2,2 8 4 16 9 NNW 0,0
21.01.2019 01:00:00 4,2 2,4 5 3 13 7 NW -
21.01.2019 00:00:00 4,6 2,5 5 3 13 7 NW 0,0
20.01.2019 23:00:00 5,5 3,2 5 3 13 7 NNW 0,0
20.01.2019 22:00:00 6,0 3,5 8 4 15 8 NNW 0,0
20.01.2019 21:00:00 6,4 4,1 8 4 13 7 NW 0,0
20.01.2019 20:00:00 6,8 4,5 8 4 11 6 NW 0,0
20.01.2019 19:00:00 7,5 4,4 4 2 8 4 NNW -
20.01.2019 18:00:00 8,3 4,1 2 1 5 3 N 0,0
20.01.2019 17:00:00 9,6 4,4 4 2 13 7 NNE 0,0
20.01.2019 16:00:00 10,2 3,9 8 4 15 8 ENE 0,0
20.01.2019 15:00:00 10,5 4,2 8 4 24 13 NE 0,0
20.01.2019 14:00:00 10,6 4,1 8 4 22 12 ENE 0,0
20.01.2019 13:00:00 11,0 5,9 4 2 18 10 NE -
20.01.2019 12:00:00 8,2 6,3 8 4 13 7 WNW 0,0
20.01.2019 11:00:00 6,4 5,0 9 5 15 8 WNW 0,0
20.01.2019 10:00:00 5,0 4,1 8 4 16 9 WNW 0,0
20.01.2019 09:00:00 4,2 3,5 8 4 15 8 NW 0,0
20.01.2019 08:00:00 3,8 3,2 8 4 15 8 WNW 0,0
20.01.2019 07:00:00 3,9 3,3 5 3 16 9 NW -
20.01.2019 06:00:00 3,6 3,0 8 4 16 9 NW 0,0
20.01.2019 05:00:00 4,2 3,5 4 2 11 6 WNW 0,0
20.01.2019 04:00:00 4,6 3,9 4 2 15 8 SSW 0,0
20.01.2019 03:00:00 5,4 4,7 5 3 9 5 NW 0,0
20.01.2019 02:00:00 5,5 4,8 4 2 13 7 W 0,2
20.01.2019 01:00:00 5,7 5,1 8 4 11 6 W -
20.01.2019 00:00:00 5,7 5,1 8 4 11 6 W 0,0
19.01.2019 23:00:00 5,9 5,3 4 2 13 7 NW 0,2
19.01.2019 22:00:00 5,9 5,2 8 4 16 9 NNW 1,0
19.01.2019 21:00:00 6,2 5,5 4 2 13 7 NW 0,2
19.01.2019 20:00:00 6,2 5,3 8 4 16 9 NW 0,0
19.01.2019 19:00:00 6,5 5,9 5 3 13 7 WNW -
19.01.2019 18:00:00 6,6 6,0 5 3 18 10 NNW 0,2
19.01.2019 17:00:00 6,6 5,7 9 5 18 10 NW 0,6
19.01.2019 16:00:00 7,2 6,3 8 4 13 7 NW 2,0
19.01.2019 15:00:00 7,7 6,2 5 3 15 8 NNE 2,0
19.01.2019 14:00:00 8,8 5,2 5 3 16 9 NNW 0,0
19.01.2019 13:00:00 7,3 2,8 5 3 16 9 NNW -
19.01.2019 12:00:00 6,1 1,4 8 4 18 10 WNW 0,0
19.01.2019 11:00:00 5,2 0,2 9 5 21 11 NW 0,0
19.01.2019 10:00:00 4,0 -0,6 9 5 18 10 NW 0,0
19.01.2019 09:00:00 2,4 -1,4 5 3 18 10 N 0,0
19.01.2019 08:00:00 2,1 -1,7 11 6 22 12 WNW 0,0
19.01.2019 07:00:00 2,8 -1,4 11 6 22 12 NW -
19.01.2019 06:00:00 2,4 -1,8 11 6 22 12 NNW 0,0
19.01.2019 05:00:00 2,3 -1,7 9 5 22 12 NW 0,0
19.01.2019 04:00:00 2,4 -1,8 9 5 24 13 NW 0,0
19.01.2019 03:00:00 2,6 -1,9 8 4 22 12 NNW 0,0
19.01.2019 02:00:00 3,1 -1,8 9 5 22 12 NNW 0,0
19.01.2019 01:00:00 3,1 -2,0 11 6 24 13 NW -
19.01.2019 00:00:00 3,6 -2,0 9 5 22 12 NNW 0,0
18.01.2019 23:00:00 3,9 -1,7 9 5 22 12 NNW 0,0
18.01.2019 22:00:00 4,5 -1,3 13 7 24 13 NNW 0,0
18.01.2019 21:00:00 5,5 -0,8 11 6 22 12 NNW 0,0
18.01.2019 20:00:00 6,4 -0,4 9 5 21 11 NNW 0,0
18.01.2019 19:00:00 7,4 -0,1 11 6 21 11 NNW -
18.01.2019 18:00:00 8,0 0,2 8 4 13 7 W 0,0
18.01.2019 17:00:00 10,5 -0,1 4 2 13 7 W 0,0
18.01.2019 16:00:00 13,1 -1,3 2 1 22 12 SW 0,0
18.01.2019 15:00:00 13,8 -0,3 2 1 18 10 NNW 0,0
18.01.2019 14:00:00 12,6 -0,7 11 6 24 13 WNW 0,0
18.01.2019 13:00:00 12,0 -1,9 15 8 31 17 WNW -
18.01.2019 12:00:00 11,2 -2,3 15 8 29 16 W 0,0
18.01.2019 11:00:00 10,0 -2,3 15 8 31 17 WNW 0,0

tt = Température de l'air
td = dewpoint
ff = Vitesse du vent
fx = gusts
dd = Direction du vent
rr = Quantités de précipitations

stations d'obs. à proximité